Lemoore Naval Air Station (Reeves Field) Airport
KNLC : now visible

Airfield :











YOU CAN JOIN US ON...

 
LOGIN :

Register | Disclaimer

   EN    FR    IT 

 









Legend :    VFR   Marginal VFR   IFR   Intensive IFR   Very Intensive IFR
Visi :
Ceiling :
>= 8 km
>= 3000ft
5 to 8 km
1000 to 3000 ft
1500m to 5 km
500 to 1000 ft
800 to 1500m
200 to 500 ft
< 800m
< 200 ft
Symbols :   Thunderstorms  Fog  Heavy snow  Heavy precipitations  Wind > 20 kt






- Airport Elevation : 232 ft


KNLC - Lemoore Naval Air Station (Reeves Field)

CURRENT METAR :
  • 280956Z AUTO 11004KT 10SM CLR 11/04 A3016 RMK AO2 SLP213 T01060044

EXPIRED METARs :
  • 280856Z AUTO 00000KT 10SM CLR 11/01 A3017 RMK AO2 SLP214 T01060011 58003
  • 280756Z 24005KT 10SM BKN180 BKN220 11/03 A3017 RMK AO2 SLP216 RH/58 T01060028 402560044

TAF TAF KNLC
Valid from the 28 at 07:00 until the 29 at 07:00 UTC


2807/2907 VRB06KT 9999 BKN180 BKN220 532809 533701 QNH3013INS
FM281800 VRB06KT 9999 OVC180 532809 533701 QNH3001INS AUTOMATED SENSOR METWATCH 2808 TIL 2815 T07/2813Z T27/2823Z FS30012



MET'MAP, your aeronautical weather chart ! - Copyright ORBIFLY December 2007 - Disclaimer

ORBIFLY MET'MAP TEAM :

Programming & Development : Alexandra Zaïnal
Concept & original design : Baudouin d'Aumeries
Assistance for programming : Marc-Olivier Méhu
Technical & hardware support : Manuel Goepfert

Contact : metmap@orbifly.com




SOURCES & CREDITS :

   NOAA       Earth
Advisory